Aviation Digital Data Service (ADDS)

Output produced by METARs form (1715 UTC 03 July 2015)
found at http://aviationweather.gov/adds/metars/
 
KGNV 031120Z 0312/0412 23003KT P6SM BKN150 
     FM031400 26006KT P6SM FEW035 BKN250 
     FM031900 26006KT P6SM VCTS SCT050CB 
     FM032300 24004KT P6SM FEW050 BKN250